sensor_id;sensor_type;location;lat;lon;timestamp;P1;durP1;ratioP1;P2;durP2;ratioP2
19151;SDS011;9708;53.114;9.388;2023-02-28T00:00:22;5.70;;;1.87;;
19151;SDS011;9708;53.114;9.388;2023-02-28T00:03:13;2.07;;;1.77;;
19151;SDS011;9708;53.114;9.388;2023-02-28T00:06:05;3.80;;;1.90;;
19151;SDS011;9708;53.114;9.388;2023-02-28T00:08:57;4.00;;;2.40;;
19151;SDS011;9708;53.114;9.388;2023-02-28T00:11:49;2.57;;;2.30;;
19151;SDS011;9708;53.114;9.388;2023-02-28T00:14:41;1.63;;;1.53;;
19151;SDS011;9708;53.114;9.388;2023-02-28T00:17:32;2.57;;;2.37;;
19151;SDS011;9708;53.114;9.388;2023-02-28T00:20:22;3.17;;;2.87;;
19151;SDS011;9708;53.114;9.388;2023-02-28T00:23:13;4.93;;;2.33;;
19151;SDS011;9708;53.114;9.388;2023-02-28T00:26:05;2.10;;;2.00;;
19151;SDS011;9708;53.114;9.388;2023-02-28T00:28:55;3.30;;;2.57;;
19151;SDS011;9708;53.114;9.388;2023-02-28T00:31:48;1.87;;;1.77;;
19151;SDS011;9708;53.114;9.388;2023-02-28T00:34:39;6.60;;;3.13;;
19151;SDS011;9708;53.114;9.388;2023-02-28T00:37:30;3.47;;;3.07;;
19151;SDS011;9708;53.114;9.388;2023-02-28T00:40:20;2.47;;;1.77;;
19151;SDS011;9708;53.114;9.388;2023-02-28T00:43:12;2.73;;;2.53;;
19151;SDS011;9708;53.114;9.388;2023-02-28T00:46:03;4.20;;;3.30;;
19151;SDS011;9708;53.114;9.388;2023-02-28T00:48:56;4.67;;;3.03;;
19151;SDS011;9708;53.114;9.388;2023-02-28T00:51:46;4.93;;;2.87;;
19151;SDS011;9708;53.114;9.388;2023-02-28T00:54:38;4.10;;;2.50;;
19151;SDS011;9708;53.114;9.388;2023-02-28T00:57:29;4.00;;;2.70;;
19151;SDS011;9708;53.114;9.388;2023-02-28T01:00:20;3.50;;;2.93;;
19151;SDS011;9708;53.114;9.388;2023-02-28T01:03:11;3.43;;;3.10;;
19151;SDS011;9708;53.114;9.388;2023-02-28T01:06:03;7.03;;;2.73;;
19151;SDS011;9708;53.114;9.388;2023-02-28T01:08:54;3.00;;;2.67;;
19151;SDS011;9708;53.114;9.388;2023-02-28T01:11:46;3.23;;;2.90;;
19151;SDS011;9708;53.114;9.388;2023-02-28T01:14:36;3.47;;;2.57;;
19151;SDS011;9708;53.114;9.388;2023-02-28T01:17:27;6.23;;;3.13;;
19151;SDS011;9708;53.114;9.388;2023-02-28T01:20:19;4.07;;;3.53;;
19151;SDS011;9708;53.114;9.388;2023-02-28T01:23:11;3.03;;;2.77;;
19151;SDS011;9708;53.114;9.388;2023-02-28T01:26:05;3.17;;;2.13;;
19151;SDS011;9708;53.114;9.388;2023-02-28T01:28:56;3.47;;;2.73;;
19151;SDS011;9708;53.114;9.388;2023-02-28T01:31:47;2.57;;;2.47;;
19151;SDS011;9708;53.114;9.388;2023-02-28T01:34:38;2.70;;;2.50;;
19151;SDS011;9708;53.114;9.388;2023-02-28T01:37:30;6.20;;;3.07;;
19151;SDS011;9708;53.114;9.388;2023-02-28T01:40:22;6.97;;;2.77;;
19151;SDS011;9708;53.114;9.388;2023-02-28T01:43:16;2.90;;;1.63;;
19151;SDS011;9708;53.114;9.388;2023-02-28T01:46:12;5.73;;;2.60;;
19151;SDS011;9708;53.114;9.388;2023-02-28T01:49:05;2.20;;;2.10;;
19151;SDS011;9708;53.114;9.388;2023-02-28T01:51:58;3.10;;;2.77;;
19151;SDS011;9708;53.114;9.388;2023-02-28T01:54:50;7.17;;;3.60;;
19151;SDS011;9708;53.114;9.388;2023-02-28T01:57:46;3.03;;;2.83;;
19151;SDS011;9708;53.114;9.388;2023-02-28T02:00:40;3.53;;;2.40;;
19151;SDS011;9708;53.114;9.388;2023-02-28T02:03:32;4.07;;;2.97;;
19151;SDS011;9708;53.114;9.388;2023-02-28T02:06:27;4.27;;;2.73;;
19151;SDS011;9708;53.114;9.388;2023-02-28T02:09:21;3.43;;;2.13;;
19151;SDS011;9708;53.114;9.388;2023-02-28T02:12:15;1.77;;;1.67;;
19151;SDS011;9708;53.114;9.388;2023-02-28T02:15:18;2.03;;;1.83;;
19151;SDS011;9708;53.114;9.388;2023-02-28T02:18:16;4.17;;;2.63;;
19151;SDS011;9708;53.114;9.388;2023-02-28T02:24:49;4.63;;;2.20;;
19151;SDS011;9708;53.114;9.388;2023-02-28T02:31:44;2.17;;;1.97;;
19151;SDS011;9708;53.114;9.388;2023-02-28T02:34:58;4.10;;;2.77;;
19151;SDS011;9708;53.114;9.388;2023-02-28T02:37:56;6.67;;;2.50;;
19151;SDS011;9708;53.114;9.388;2023-02-28T02:40:57;3.67;;;1.90;;
19151;SDS011;9708;53.114;9.388;2023-02-28T02:43:54;3.40;;;2.43;;
19151;SDS011;9708;53.114;9.388;2023-02-28T02:46:52;1.93;;;1.80;;
19151;SDS011;9708;53.114;9.388;2023-02-28T02:49:48;3.13;;;2.43;;
19151;SDS011;9708;53.114;9.388;2023-02-28T02:52:43;2.07;;;1.90;;
19151;SDS011;9708;53.114;9.388;2023-02-28T02:55:37;1.73;;;1.63;;
19151;SDS011;9708;53.114;9.388;2023-02-28T02:58:32;2.13;;;1.93;;
19151;SDS011;9708;53.114;9.388;2023-02-28T03:01:26;2.20;;;2.10;;
19151;SDS011;9708;53.114;9.388;2023-02-28T03:04:20;1.77;;;1.67;;
19151;SDS011;9708;53.114;9.388;2023-02-28T03:07:13;3.10;;;2.50;;
19151;SDS011;9708;53.114;9.388;2023-02-28T03:13:24;1.73;;;1.63;;
19151;SDS011;9708;53.114;9.388;2023-02-28T03:16:38;2.63;;;2.43;;
19151;SDS011;9708;53.114;9.388;2023-02-28T03:19:47;2.37;;;2.17;;
19151;SDS011;9708;53.114;9.388;2023-02-28T03:22:48;4.40;;;2.87;;
19151;SDS011;9708;53.114;9.388;2023-02-28T03:25:50;2.80;;;2.57;;
19151;SDS011;9708;53.114;9.388;2023-02-28T03:28:49;2.13;;;1.93;;
19151;SDS011;9708;53.114;9.388;2023-02-28T03:31:46;3.37;;;2.67;;
19151;SDS011;9708;53.114;9.388;2023-02-28T03:34:41;2.27;;;2.17;;
19151;SDS011;9708;53.114;9.388;2023-02-28T03:37:37;5.73;;;2.90;;
19151;SDS011;9708;53.114;9.388;2023-02-28T03:40:32;2.67;;;2.47;;
19151;SDS011;9708;53.114;9.388;2023-02-28T03:43:26;3.50;;;3.00;;
19151;SDS011;9708;53.114;9.388;2023-02-28T03:45:57;4.80;;;3.50;;
19151;SDS011;9708;53.114;9.388;2023-02-28T03:48:31;3.53;;;1.97;;
19151;SDS011;9708;53.114;9.388;2023-02-28T03:51:03;2.93;;;2.23;;
19151;SDS011;9708;53.114;9.388;2023-02-28T03:53:35;2.53;;;2.33;;
19151;SDS011;9708;53.114;9.388;2023-02-28T03:56:07;1.47;;;1.47;;
19151;SDS011;9708;53.114;9.388;2023-02-28T03:58:41;3.40;;;2.50;;
19151;SDS011;9708;53.114;9.388;2023-02-28T04:01:11;2.83;;;2.03;;
19151;SDS011;9708;53.114;9.388;2023-02-28T04:03:42;2.23;;;2.13;;
19151;SDS011;9708;53.114;9.388;2023-02-28T04:06:12;3.70;;;2.63;;
19151;SDS011;9708;53.114;9.388;2023-02-28T04:08:42;2.57;;;2.37;;
19151;SDS011;9708;53.114;9.388;2023-02-28T04:11:12;3.67;;;2.47;;
19151;SDS011;9708;53.114;9.388;2023-02-28T04:13:47;1.73;;;1.67;;
19151;SDS011;9708;53.114;9.388;2023-02-28T04:16:14;3.60;;;2.70;;
19151;SDS011;9708;53.114;9.388;2023-02-28T04:18:41;2.57;;;2.33;;
19151;SDS011;9708;53.114;9.388;2023-02-28T04:21:09;8.70;;;2.77;;
19151;SDS011;9708;53.114;9.388;2023-02-28T04:23:36;1.90;;;1.90;;
19151;SDS011;9708;53.114;9.388;2023-02-28T04:26:03;2.00;;;1.90;;
19151;SDS011;9708;53.114;9.388;2023-02-28T04:28:30;2.60;;;2.40;;
19151;SDS011;9708;53.114;9.388;2023-02-28T04:30:59;4.63;;;2.03;;
19151;SDS011;9708;53.114;9.388;2023-02-28T04:33:28;11.93;;;2.03;;
19151;SDS011;9708;53.114;9.388;2023-02-28T04:35:59;2.63;;;2.17;;
19151;SDS011;9708;53.114;9.388;2023-02-28T04:38:26;10.27;;;2.23;;
19151;SDS011;9708;53.114;9.388;2023-02-28T04:40:53;4.60;;;3.03;;
19151;SDS011;9708;53.114;9.388;2023-02-28T04:43:19;2.53;;;2.33;;
19151;SDS011;9708;53.114;9.388;2023-02-28T04:45:46;2.47;;;2.37;;
19151;SDS011;9708;53.114;9.388;2023-02-28T04:48:14;2.00;;;1.90;;
19151;SDS011;9708;53.114;9.388;2023-02-28T04:50:41;2.37;;;1.90;;
19151;SDS011;9708;53.114;9.388;2023-02-28T04:53:08;3.47;;;3.13;;
19151;SDS011;9708;53.114;9.388;2023-02-28T04:55:35;3.93;;;2.80;;
19151;SDS011;9708;53.114;9.388;2023-02-28T04:58:05;1.83;;;1.73;;
19151;SDS011;9708;53.114;9.388;2023-02-28T05:00:31;2.17;;;1.67;;
19151;SDS011;9708;53.114;9.388;2023-02-28T05:02:58;2.17;;;1.40;;
19151;SDS011;9708;53.114;9.388;2023-02-28T05:05:26;2.80;;;2.53;;
19151;SDS011;9708;53.114;9.388;2023-02-28T05:07:53;2.50;;;2.30;;
19151;SDS011;9708;53.114;9.388;2023-02-28T05:10:20;1.97;;;1.83;;
19151;SDS011;9708;53.114;9.388;2023-02-28T05:12:47;2.60;;;1.80;;
19151;SDS011;9708;53.114;9.388;2023-02-28T05:15:14;2.97;;;2.17;;
19151;SDS011;9708;53.114;9.388;2023-02-28T05:17:42;4.07;;;1.80;;
19151;SDS011;9708;53.114;9.388;2023-02-28T05:20:09;3.10;;;2.87;;
19151;SDS011;9708;53.114;9.388;2023-02-28T05:22:39;6.93;;;2.60;;
19151;SDS011;9708;53.114;9.388;2023-02-28T05:25:08;5.13;;;2.57;;
19151;SDS011;9708;53.114;9.388;2023-02-28T05:27:38;4.17;;;2.63;;
19151;SDS011;9708;53.114;9.388;2023-02-28T05:30:05;7.43;;;3.23;;
19151;SDS011;9708;53.114;9.388;2023-02-28T05:32:35;2.67;;;2.07;;
19151;SDS011;9708;53.114;9.388;2023-02-28T05:35:02;3.47;;;2.07;;
19151;SDS011;9708;53.114;9.388;2023-02-28T05:37:29;3.57;;;3.00;;
19151;SDS011;9708;53.114;9.388;2023-02-28T05:39:57;2.17;;;2.07;;
19151;SDS011;9708;53.114;9.388;2023-02-28T05:42:24;3.10;;;2.47;;
19151;SDS011;9708;53.114;9.388;2023-02-28T05:44:51;3.17;;;2.40;;
19151;SDS011;9708;53.114;9.388;2023-02-28T05:47:17;2.00;;;1.90;;
19151;SDS011;9708;53.114;9.388;2023-02-28T05:49:44;2.60;;;2.50;;
19151;SDS011;9708;53.114;9.388;2023-02-28T05:52:11;3.07;;;2.87;;
19151;SDS011;9708;53.114;9.388;2023-02-28T05:54:38;2.70;;;2.27;;
19151;SDS011;9708;53.114;9.388;2023-02-28T05:57:06;1.57;;;1.53;;
19151;SDS011;9708;53.114;9.388;2023-02-28T05:59:33;2.10;;;2.00;;
19151;SDS011;9708;53.114;9.388;2023-02-28T06:02:04;2.57;;;2.37;;
19151;SDS011;9708;53.114;9.388;2023-02-28T06:04:31;3.97;;;3.03;;
19151;SDS011;9708;53.114;9.388;2023-02-28T06:06:58;2.13;;;1.77;;
19151;SDS011;9708;53.114;9.388;2023-02-28T06:09:24;7.73;;;2.90;;
19151;SDS011;9708;53.114;9.388;2023-02-28T06:11:51;2.33;;;2.23;;
19151;SDS011;9708;53.114;9.388;2023-02-28T06:14:20;2.23;;;2.13;;
19151;SDS011;9708;53.114;9.388;2023-02-28T06:16:47;3.17;;;2.07;;
19151;SDS011;9708;53.114;9.388;2023-02-28T06:19:14;4.33;;;2.83;;
19151;SDS011;9708;53.114;9.388;2023-02-28T06:21:41;3.13;;;2.83;;
19151;SDS011;9708;53.114;9.388;2023-02-28T06:24:08;1.53;;;1.53;;
19151;SDS011;9708;53.114;9.388;2023-02-28T06:26:34;5.23;;;3.67;;
19151;SDS011;9708;53.114;9.388;2023-02-28T06:29:01;2.67;;;2.47;;
19151;SDS011;9708;53.114;9.388;2023-02-28T06:31:30;12.60;;;4.63;;
19151;SDS011;9708;53.114;9.388;2023-02-28T06:33:57;7.27;;;4.03;;
19151;SDS011;9708;53.114;9.388;2023-02-28T06:36:23;3.47;;;2.53;;
19151;SDS011;9708;53.114;9.388;2023-02-28T06:38:50;3.10;;;2.90;;
19151;SDS011;9708;53.114;9.388;2023-02-28T06:41:20;6.30;;;2.80;;
19151;SDS011;9708;53.114;9.388;2023-02-28T06:43:47;4.57;;;3.47;;
19151;SDS011;9708;53.114;9.388;2023-02-28T06:46:14;3.67;;;2.90;;
19151;SDS011;9708;53.114;9.388;2023-02-28T06:48:42;2.57;;;2.03;;
19151;SDS011;9708;53.114;9.388;2023-02-28T06:51:10;3.87;;;2.47;;
19151;SDS011;9708;53.114;9.388;2023-02-28T06:53:39;10.03;;;3.50;;
19151;SDS011;9708;53.114;9.388;2023-02-28T06:56:07;2.83;;;2.63;;
19151;SDS011;9708;53.114;9.388;2023-02-28T06:58:35;5.97;;;2.70;;
19151;SDS011;9708;53.114;9.388;2023-02-28T07:01:02;5.43;;;3.17;;
19151;SDS011;9708;53.114;9.388;2023-02-28T07:03:30;4.20;;;2.87;;
19151;SDS011;9708;53.114;9.388;2023-02-28T07:05:58;2.10;;;2.00;;
19151;SDS011;9708;53.114;9.388;2023-02-28T07:08:26;3.43;;;2.77;;
19151;SDS011;9708;53.114;9.388;2023-02-28T07:10:53;3.10;;;2.73;;
19151;SDS011;9708;53.114;9.388;2023-02-28T07:13:20;2.50;;;2.07;;
19151;SDS011;9708;53.114;9.388;2023-02-28T07:15:52;2.90;;;2.07;;
19151;SDS011;9708;53.114;9.388;2023-02-28T07:18:20;4.03;;;3.67;;
19151;SDS011;9708;53.114;9.388;2023-02-28T07:20:46;6.00;;;3.40;;
19151;SDS011;9708;53.114;9.388;2023-02-28T07:23:15;5.53;;;3.53;;
19151;SDS011;9708;53.114;9.388;2023-02-28T07:25:41;5.33;;;3.90;;
19151;SDS011;9708;53.114;9.388;2023-02-28T07:28:08;4.10;;;3.40;;
19151;SDS011;9708;53.114;9.388;2023-02-28T07:30:35;3.20;;;2.33;;
19151;SDS011;9708;53.114;9.388;2023-02-28T07:33:02;7.70;;;3.53;;
19151;SDS011;9708;53.114;9.388;2023-02-28T07:35:29;4.17;;;2.50;;
19151;SDS011;9708;53.114;9.388;2023-02-28T07:37:56;2.30;;;2.10;;
19151;SDS011;9708;53.114;9.388;2023-02-28T07:40:25;4.03;;;2.70;;
19151;SDS011;9708;53.114;9.388;2023-02-28T07:42:52;4.10;;;2.50;;
19151;SDS011;9708;53.114;9.388;2023-02-28T07:45:19;5.43;;;3.10;;
19151;SDS011;9708;53.114;9.388;2023-02-28T07:47:47;2.90;;;2.40;;
19151;SDS011;9708;53.114;9.388;2023-02-28T07:50:14;4.87;;;2.60;;
19151;SDS011;9708;53.114;9.388;2023-02-28T07:52:41;2.37;;;2.17;;
19151;SDS011;9708;53.114;9.388;2023-02-28T07:55:08;5.67;;;2.80;;
19151;SDS011;9708;53.114;9.388;2023-02-28T07:57:37;5.47;;;2.77;;
19151;SDS011;9708;53.114;9.388;2023-02-28T08:00:05;3.33;;;2.93;;
19151;SDS011;9708;53.114;9.388;2023-02-28T08:02:34;3.97;;;2.70;;
19151;SDS011;9708;53.114;9.388;2023-02-28T08:05:01;6.70;;;2.50;;
19151;SDS011;9708;53.114;9.388;2023-02-28T08:07:28;3.40;;;2.40;;
19151;SDS011;9708;53.114;9.388;2023-02-28T08:09:55;3.07;;;2.50;;
19151;SDS011;9708;53.114;9.388;2023-02-28T08:12:22;3.90;;;2.43;;
19151;SDS011;9708;53.114;9.388;2023-02-28T08:14:50;3.57;;;2.37;;
19151;SDS011;9708;53.114;9.388;2023-02-28T08:17:17;5.55;;;2.20;;
19151;SDS011;9708;53.114;9.388;2023-02-28T08:19:45;4.45;;;2.15;;
19151;SDS011;9708;53.114;9.388;2023-02-28T08:22:11;4.07;;;2.35;;
19151;SDS011;9708;53.114;9.388;2023-02-28T08:24:39;2.42;;;2.25;;
19151;SDS011;9708;53.114;9.388;2023-02-28T08:27:07;3.00;;;2.38;;
19151;SDS011;9708;53.114;9.388;2023-02-28T08:29:33;3.15;;;2.08;;
19151;SDS011;9708;53.114;9.388;2023-02-28T08:32:04;2.30;;;2.10;;
19151;SDS011;9708;53.114;9.388;2023-02-28T08:34:31;2.33;;;2.13;;
19151;SDS011;9708;53.114;9.388;2023-02-28T08:36:58;3.20;;;2.20;;
19151;SDS011;9708;53.114;9.388;2023-02-28T08:39:25;2.15;;;2.05;;
19151;SDS011;9708;53.114;9.388;2023-02-28T08:41:52;2.42;;;1.90;;
19151;SDS011;9708;53.114;9.388;2023-02-28T08:44:18;2.13;;;2.00;;
19151;SDS011;9708;53.114;9.388;2023-02-28T08:46:45;3.08;;;2.45;;
19151;SDS011;9708;53.114;9.388;2023-02-28T08:49:13;2.20;;;1.80;;
19151;SDS011;9708;53.114;9.388;2023-02-28T08:51:40;2.55;;;1.90;;
19151;SDS011;9708;53.114;9.388;2023-02-28T08:54:07;3.65;;;1.85;;
19151;SDS011;9708;53.114;9.388;2023-02-28T08:56:37;3.05;;;1.77;;
19151;SDS011;9708;53.114;9.388;2023-02-28T08:59:04;3.45;;;2.03;;
19151;SDS011;9708;53.114;9.388;2023-02-28T09:01:31;1.95;;;1.75;;
19151;SDS011;9708;53.114;9.388;2023-02-28T09:03:57;2.80;;;1.85;;
19151;SDS011;9708;53.114;9.388;2023-02-28T09:06:26;2.35;;;1.92;;
19151;SDS011;9708;53.114;9.388;2023-02-28T09:08:53;3.30;;;1.73;;
19151;SDS011;9708;53.114;9.388;2023-02-28T09:11:24;2.08;;;1.60;;
19151;SDS011;9708;53.114;9.388;2023-02-28T09:13:51;3.22;;;1.88;;
19151;SDS011;9708;53.114;9.388;2023-02-28T09:16:18;2.25;;;1.83;;
19151;SDS011;9708;53.114;9.388;2023-02-28T09:18:45;1.67;;;1.58;;
19151;SDS011;9708;53.114;9.388;2023-02-28T09:21:12;1.55;;;1.45;;
19151;SDS011;9708;53.114;9.388;2023-02-28T09:23:42;3.38;;;1.52;;
19151;SDS011;9708;53.114;9.388;2023-02-28T09:26:13;4.80;;;2.00;;
19151;SDS011;9708;53.114;9.388;2023-02-28T09:28:40;1.20;;;1.10;;
19151;SDS011;9708;53.114;9.388;2023-02-28T09:31:10;2.00;;;1.50;;
19151;SDS011;9708;53.114;9.388;2023-02-28T09:33:39;1.92;;;1.40;;
19151;SDS011;9708;53.114;9.388;2023-02-28T09:36:06;0.90;;;0.90;;
19151;SDS011;9708;53.114;9.388;2023-02-28T09:38:33;0.82;;;0.82;;
19151;SDS011;9708;53.114;9.388;2023-02-28T09:41:02;0.88;;;0.88;;
19151;SDS011;9708;53.114;9.388;2023-02-28T09:43:37;1.33;;;0.80;;
19151;SDS011;9708;53.114;9.388;2023-02-28T09:46:12;0.73;;;0.70;;
19151;SDS011;9708;53.114;9.388;2023-02-28T09:48:47;1.15;;;1.02;;
19151;SDS011;9708;53.114;9.388;2023-02-28T09:51:22;0.65;;;0.60;;
19151;SDS011;9708;53.114;9.388;2023-02-28T09:53:56;0.93;;;0.93;;
19151;SDS011;9708;53.114;9.388;2023-02-28T09:56:26;0.60;;;0.60;;
19151;SDS011;9708;53.114;9.388;2023-02-28T09:58:57;1.58;;;0.90;;
19151;SDS011;9708;53.114;9.388;2023-02-28T10:01:27;0.60;;;0.60;;
19151;SDS011;9708;53.114;9.388;2023-02-28T10:04:03;0.50;;;0.50;;
19151;SDS011;9708;53.114;9.388;2023-02-28T10:06:36;0.60;;;0.60;;
19151;SDS011;9708;53.114;9.388;2023-02-28T10:09:10;2.08;;;0.90;;
19151;SDS011;9708;53.114;9.388;2023-02-28T10:11:40;0.88;;;0.63;;
19151;SDS011;9708;53.114;9.388;2023-02-28T10:14:11;0.52;;;0.52;;
19151;SDS011;9708;53.114;9.388;2023-02-28T10:16:42;0.95;;;0.77;;
19151;SDS011;9708;53.114;9.388;2023-02-28T10:19:17;0.70;;;0.70;;
19151;SDS011;9708;53.114;9.388;2023-02-28T10:21:49;2.17;;;0.70;;
19151;SDS011;9708;53.114;9.388;2023-02-28T10:24:23;0.73;;;0.70;;
19151;SDS011;9708;53.114;9.388;2023-02-28T10:26:58;0.50;;;0.50;;
19151;SDS011;9708;53.114;9.388;2023-02-28T10:29:27;1.92;;;0.80;;
19151;SDS011;9708;53.114;9.388;2023-02-28T10:31:58;0.80;;;0.80;;
19151;SDS011;9708;53.114;9.388;2023-02-28T10:34:28;1.08;;;0.90;;
19151;SDS011;9708;53.114;9.388;2023-02-28T10:36:55;2.33;;;1.10;;
19151;SDS011;9708;53.114;9.388;2023-02-28T10:39:36;1.10;;;0.80;;
19151;SDS011;9708;53.114;9.388;2023-02-28T10:42:18;0.77;;;0.77;;
19151;SDS011;9708;53.114;9.388;2023-02-28T10:44:46;0.70;;;0.70;;
19151;SDS011;9708;53.114;9.388;2023-02-28T10:47:14;0.73;;;0.73;;
19151;SDS011;9708;53.114;9.388;2023-02-28T10:49:46;2.25;;;0.80;;
19151;SDS011;9708;53.114;9.388;2023-02-28T10:52:14;0.73;;;0.70;;
19151;SDS011;9708;53.114;9.388;2023-02-28T10:55:13;0.82;;;0.82;;
19151;SDS011;9708;53.114;9.388;2023-02-28T10:57:43;1.20;;;1.10;;
19151;SDS011;9708;53.114;9.388;2023-02-28T11:00:13;0.70;;;0.70;;
19151;SDS011;9708;53.114;9.388;2023-02-28T11:02:42;1.30;;;0.82;;
19151;SDS011;9708;53.114;9.388;2023-02-28T11:05:26;1.08;;;0.90;;
19151;SDS011;9708;53.114;9.388;2023-02-28T11:07:55;0.80;;;0.80;;
19151;SDS011;9708;53.114;9.388;2023-02-28T11:10:25;1.05;;;0.93;;
19151;SDS011;9708;53.114;9.388;2023-02-28T11:12:56;1.02;;;0.70;;
19151;SDS011;9708;53.114;9.388;2023-02-28T11:15:25;2.38;;;0.80;;
19151;SDS011;9708;53.114;9.388;2023-02-28T11:17:53;0.98;;;0.90;;
19151;SDS011;9708;53.114;9.388;2023-02-28T11:20:23;0.90;;;0.90;;
19151;SDS011;9708;53.114;9.388;2023-02-28T11:22:52;0.63;;;0.63;;
19151;SDS011;9708;53.114;9.388;2023-02-28T11:25:21;0.60;;;0.60;;
19151;SDS011;9708;53.114;9.388;2023-02-28T11:27:50;1.55;;;1.00;;
19151;SDS011;9708;53.114;9.388;2023-02-28T11:30:27;0.77;;;0.73;;
19151;SDS011;9708;53.114;9.388;2023-02-28T11:32:56;1.58;;;0.73;;
19151;SDS011;9708;53.114;9.388;2023-02-28T11:35:24;1.13;;;1.05;;
19151;SDS011;9708;53.114;9.388;2023-02-28T11:37:54;0.70;;;0.70;;
19151;SDS011;9708;53.114;9.388;2023-02-28T11:40:24;0.70;;;0.70;;
19151;SDS011;9708;53.114;9.388;2023-02-28T11:43:05;1.27;;;0.90;;
19151;SDS011;9708;53.114;9.388;2023-02-28T11:45:44;0.68;;;0.68;;
19151;SDS011;9708;53.114;9.388;2023-02-28T11:48:21;1.05;;;0.95;;
19151;SDS011;9708;53.114;9.388;2023-02-28T11:50:59;0.60;;;0.60;;
19151;SDS011;9708;53.114;9.388;2023-02-28T11:53:38;0.70;;;0.70;;
19151;SDS011;9708;53.114;9.388;2023-02-28T11:56:15;0.85;;;0.85;;
19151;SDS011;9708;53.114;9.388;2023-02-28T11:58:50;0.75;;;0.70;;
19151;SDS011;9708;53.114;9.388;2023-02-28T12:01:28;0.80;;;0.73;;
19151;SDS011;9708;53.114;9.388;2023-02-28T12:04:11;1.42;;;0.93;;
19151;SDS011;9708;53.114;9.388;2023-02-28T12:06:50;2.53;;;1.10;;
19151;SDS011;9708;53.114;9.388;2023-02-28T12:12:23;7.93;;;3.10;;
19151;SDS011;9708;53.114;9.388;2023-02-28T12:18:24;1.85;;;1.13;;
19151;SDS011;9708;53.114;9.388;2023-02-28T12:21:01;3.65;;;1.08;;
19151;SDS011;9708;53.114;9.388;2023-02-28T12:23:41;1.40;;;1.00;;
19151;SDS011;9708;53.114;9.388;2023-02-28T12:26:22;0.55;;;0.55;;
19151;SDS011;9708;53.114;9.388;2023-02-28T12:28:57;0.80;;;0.80;;
19151;SDS011;9708;53.114;9.388;2023-02-28T12:31:30;0.75;;;0.73;;
19151;SDS011;9708;53.114;9.388;2023-02-28T12:34:04;0.75;;;0.75;;
19151;SDS011;9708;53.114;9.388;2023-02-28T12:36:35;1.17;;;0.90;;
19151;SDS011;9708;53.114;9.388;2023-02-28T12:39:06;2.33;;;0.80;;
19151;SDS011;9708;53.114;9.388;2023-02-28T12:41:39;0.73;;;0.60;;
19151;SDS011;9708;53.114;9.388;2023-02-28T12:44:09;0.70;;;0.60;;
19151;SDS011;9708;53.114;9.388;2023-02-28T12:46:39;1.48;;;0.95;;
19151;SDS011;9708;53.114;9.388;2023-02-28T12:49:10;1.33;;;0.70;;
19151;SDS011;9708;53.114;9.388;2023-02-28T12:51:42;0.80;;;0.80;;
19151;SDS011;9708;53.114;9.388;2023-02-28T12:54:13;0.75;;;0.73;;
19151;SDS011;9708;53.114;9.388;2023-02-28T12:56:47;2.45;;;0.88;;
19151;SDS011;9708;53.114;9.388;2023-02-28T12:59:22;0.63;;;0.60;;
19151;SDS011;9708;53.114;9.388;2023-02-28T13:05:08;0.88;;;0.80;;
19151;SDS011;9708;53.114;9.388;2023-02-28T13:07:56;0.82;;;0.60;;
19151;SDS011;9708;53.114;9.388;2023-02-28T13:10:40;0.98;;;0.80;;
19151;SDS011;9708;53.114;9.388;2023-02-28T13:13:13;0.88;;;0.75;;
19151;SDS011;9708;53.114;9.388;2023-02-28T13:15:56;0.73;;;0.73;;
19151;SDS011;9708;53.114;9.388;2023-02-28T13:18:32;0.80;;;0.80;;
19151;SDS011;9708;53.114;9.388;2023-02-28T13:21:03;0.70;;;0.70;;
19151;SDS011;9708;53.114;9.388;2023-02-28T13:29:32;0.80;;;0.80;;
19151;SDS011;9708;53.114;9.388;2023-02-28T13:38:01;1.97;;;0.80;;
19151;SDS011;9708;53.114;9.388;2023-02-28T13:40:43;0.82;;;0.68;;
19151;SDS011;9708;53.114;9.388;2023-02-28T13:43:10;1.80;;;0.93;;
19151;SDS011;9708;53.114;9.388;2023-02-28T13:45:37;1.93;;;0.90;;
19151;SDS011;9708;53.114;9.388;2023-02-28T13:48:05;1.10;;;1.00;;
19151;SDS011;9708;53.114;9.388;2023-02-28T13:50:43;1.17;;;1.17;;
19151;SDS011;9708;53.114;9.388;2023-02-28T13:53:28;1.87;;;0.90;;
19151;SDS011;9708;53.114;9.388;2023-02-28T13:56:15;1.13;;;1.03;;
19151;SDS011;9708;53.114;9.388;2023-02-28T13:58:53;1.40;;;0.80;;
19151;SDS011;9708;53.114;9.388;2023-02-28T14:01:36;0.77;;;0.77;;
19151;SDS011;9708;53.114;9.388;2023-02-28T14:07:27;0.80;;;0.80;;
19151;SDS011;9708;53.114;9.388;2023-02-28T14:09:59;1.27;;;0.60;;
19151;SDS011;9708;53.114;9.388;2023-02-28T14:15:27;0.90;;;0.70;;
19151;SDS011;9708;53.114;9.388;2023-02-28T14:18:17;1.10;;;1.00;;
19151;SDS011;9708;53.114;9.388;2023-02-28T14:20:48;0.93;;;0.60;;
19151;SDS011;9708;53.114;9.388;2023-02-28T14:23:21;0.67;;;0.67;;
19151;SDS011;9708;53.114;9.388;2023-02-28T14:26:01;0.93;;;0.80;;
19151;SDS011;9708;53.114;9.388;2023-02-28T14:28:39;0.83;;;0.70;;
19151;SDS011;9708;53.114;9.388;2023-02-28T14:31:17;0.77;;;0.75;;
19151;SDS011;9708;53.114;9.388;2023-02-28T14:33:57;1.40;;;0.85;;
19151;SDS011;9708;53.114;9.388;2023-02-28T14:36:31;0.68;;;0.60;;
19151;SDS011;9708;53.114;9.388;2023-02-28T14:39:03;1.48;;;1.10;;
19151;SDS011;9708;53.114;9.388;2023-02-28T14:41:34;0.60;;;0.60;;
19151;SDS011;9708;53.114;9.388;2023-02-28T14:44:12;0.75;;;0.70;;
19151;SDS011;9708;53.114;9.388;2023-02-28T14:46:41;0.77;;;0.77;;
19151;SDS011;9708;53.114;9.388;2023-02-28T14:49:12;0.70;;;0.70;;
19151;SDS011;9708;53.114;9.388;2023-02-28T14:51:42;1.03;;;0.70;;
19151;SDS011;9708;53.114;9.388;2023-02-28T14:54:12;0.70;;;0.70;;
19151;SDS011;9708;53.114;9.388;2023-02-28T14:56:41;0.90;;;0.90;;
19151;SDS011;9708;53.114;9.388;2023-02-28T14:59:22;1.17;;;1.17;;
19151;SDS011;9708;53.114;9.388;2023-02-28T15:01:52;1.03;;;0.70;;
19151;SDS011;9708;53.114;9.388;2023-02-28T15:04:33;1.67;;;1.57;;
19151;SDS011;9708;53.114;9.388;2023-02-28T15:07:09;0.67;;;0.67;;
19151;SDS011;9708;53.114;9.388;2023-02-28T15:09:37;0.60;;;0.60;;
19151;SDS011;9708;53.114;9.388;2023-02-28T15:12:05;0.70;;;0.70;;
19151;SDS011;9708;53.114;9.388;2023-02-28T15:14:33;0.77;;;0.77;;
19151;SDS011;9708;53.114;9.388;2023-02-28T15:17:05;0.60;;;0.60;;
19151;SDS011;9708;53.114;9.388;2023-02-28T15:19:39;0.60;;;0.60;;
19151;SDS011;9708;53.114;9.388;2023-02-28T15:22:19;1.13;;;0.80;;
19151;SDS011;9708;53.114;9.388;2023-02-28T15:24:54;1.13;;;0.83;;
19151;SDS011;9708;53.114;9.388;2023-02-28T15:27:23;1.37;;;1.27;;
19151;SDS011;9708;53.114;9.388;2023-02-28T15:29:53;0.60;;;0.60;;
19151;SDS011;9708;53.114;9.388;2023-02-28T15:32:26;0.80;;;0.80;;
19151;SDS011;9708;53.114;9.388;2023-02-28T15:34:55;1.13;;;1.00;;
19151;SDS011;9708;53.114;9.388;2023-02-28T15:37:27;0.60;;;0.60;;
19151;SDS011;9708;53.114;9.388;2023-02-28T15:39:56;0.70;;;0.70;;
19151;SDS011;9708;53.114;9.388;2023-02-28T15:42:29;1.13;;;0.67;;
19151;SDS011;9708;53.114;9.388;2023-02-28T15:44:56;0.77;;;0.77;;
19151;SDS011;9708;53.114;9.388;2023-02-28T15:47:25;0.80;;;0.80;;
19151;SDS011;9708;53.114;9.388;2023-02-28T15:49:54;0.70;;;0.70;;
19151;SDS011;9708;53.114;9.388;2023-02-28T15:52:26;1.17;;;0.90;;
19151;SDS011;9708;53.114;9.388;2023-02-28T15:54:56;0.97;;;0.97;;
19151;SDS011;9708;53.114;9.388;2023-02-28T15:57:25;0.63;;;0.63;;
19151;SDS011;9708;53.114;9.388;2023-02-28T15:59:55;0.70;;;0.70;;
19151;SDS011;9708;53.114;9.388;2023-02-28T16:02:30;0.90;;;0.90;;
19151;SDS011;9708;53.114;9.388;2023-02-28T16:04:59;0.70;;;0.70;;
19151;SDS011;9708;53.114;9.388;2023-02-28T16:07:28;0.70;;;0.70;;
19151;SDS011;9708;53.114;9.388;2023-02-28T16:09:55;1.70;;;1.00;;
19151;SDS011;9708;53.114;9.388;2023-02-28T16:12:24;0.87;;;0.87;;
19151;SDS011;9708;53.114;9.388;2023-02-28T16:14:55;1.90;;;1.03;;
19151;SDS011;9708;53.114;9.388;2023-02-28T16:17:26;0.70;;;0.70;;
19151;SDS011;9708;53.114;9.388;2023-02-28T16:19:55;0.70;;;0.70;;
19151;SDS011;9708;53.114;9.388;2023-02-28T16:22:23;2.47;;;0.97;;
19151;SDS011;9708;53.114;9.388;2023-02-28T16:24:50;1.20;;;1.10;;
19151;SDS011;9708;53.114;9.388;2023-02-28T16:27:18;0.70;;;0.70;;